sensor_id;sensor_type;location;lat;lon;timestamp;temperature;humidity
26947;DHT22;14501;52.282;10.560;2023-01-16T00:01:53;4.50;99.90
26947;DHT22;14501;52.282;10.560;2023-01-16T00:04:19;4.50;99.90
26947;DHT22;14501;52.282;10.560;2023-01-16T00:06:45;4.60;99.90
26947;DHT22;14501;52.282;10.560;2023-01-16T00:09:10;4.60;99.90
26947;DHT22;14501;52.282;10.560;2023-01-16T00:11:36;4.70;99.90
26947;DHT22;14501;52.282;10.560;2023-01-16T00:14:02;4.80;99.90
26947;DHT22;14501;52.282;10.560;2023-01-16T00:16:28;4.90;99.90
26947;DHT22;14501;52.282;10.560;2023-01-16T00:18:54;5.00;99.90
26947;DHT22;14501;52.282;10.560;2023-01-16T00:21:21;5.00;99.90
26947;DHT22;14501;52.282;10.560;2023-01-16T00:23:52;5.10;99.90
26947;DHT22;14501;52.282;10.560;2023-01-16T00:26:17;5.10;99.90
26947;DHT22;14501;52.282;10.560;2023-01-16T00:28:43;5.20;99.90
26947;DHT22;14501;52.282;10.560;2023-01-16T00:31:08;5.30;99.90
26947;DHT22;14501;52.282;10.560;2023-01-16T00:33:34;5.30;99.90
26947;DHT22;14501;52.282;10.560;2023-01-16T00:36:00;5.40;99.90
26947;DHT22;14501;52.282;10.560;2023-01-16T00:38:26;5.40;99.90
26947;DHT22;14501;52.282;10.560;2023-01-16T00:40:52;5.40;99.90
26947;DHT22;14501;52.282;10.560;2023-01-16T00:43:18;5.40;99.90
26947;DHT22;14501;52.282;10.560;2023-01-16T00:45:43;5.40;99.90
26947;DHT22;14501;52.282;10.560;2023-01-16T00:48:09;5.40;99.90
26947;DHT22;14501;52.282;10.560;2023-01-16T00:50:35;5.40;99.90
26947;DHT22;14501;52.282;10.560;2023-01-16T00:53:01;5.30;99.90
26947;DHT22;14501;52.282;10.560;2023-01-16T00:55:26;5.20;99.90
26947;DHT22;14501;52.282;10.560;2023-01-16T00:57:52;5.20;99.90
26947;DHT22;14501;52.282;10.560;2023-01-16T01:00:19;5.20;99.90
26947;DHT22;14501;52.282;10.560;2023-01-16T01:02:47;5.20;99.90
26947;DHT22;14501;52.282;10.560;2023-01-16T01:05:13;5.20;99.90
26947;DHT22;14501;52.282;10.560;2023-01-16T01:07:39;5.20;99.90
26947;DHT22;14501;52.282;10.560;2023-01-16T01:10:05;5.20;99.90
26947;DHT22;14501;52.282;10.560;2023-01-16T01:12:31;5.20;99.90
26947;DHT22;14501;52.282;10.560;2023-01-16T01:14:56;5.20;99.90
26947;DHT22;14501;52.282;10.560;2023-01-16T01:17:22;5.10;99.90
26947;DHT22;14501;52.282;10.560;2023-01-16T01:19:48;5.10;99.90
26947;DHT22;14501;52.282;10.560;2023-01-16T01:22:13;5.10;99.90
26947;DHT22;14501;52.282;10.560;2023-01-16T01:24:41;5.10;99.90
26947;DHT22;14501;52.282;10.560;2023-01-16T01:27:06;5.00;99.90
26947;DHT22;14501;52.282;10.560;2023-01-16T01:29:32;5.00;99.90
26947;DHT22;14501;52.282;10.560;2023-01-16T01:31:58;4.90;99.90
26947;DHT22;14501;52.282;10.560;2023-01-16T01:34:23;5.00;99.90
26947;DHT22;14501;52.282;10.560;2023-01-16T01:36:49;4.90;99.90
26947;DHT22;14501;52.282;10.560;2023-01-16T01:39:14;4.90;99.90
26947;DHT22;14501;52.282;10.560;2023-01-16T01:41:40;4.80;99.90
26947;DHT22;14501;52.282;10.560;2023-01-16T01:47:09;4.80;99.90
26947;DHT22;14501;52.282;10.560;2023-01-16T01:49:36;4.70;99.90
26947;DHT22;14501;52.282;10.560;2023-01-16T01:52:03;4.70;99.90
26947;DHT22;14501;52.282;10.560;2023-01-16T01:54:39;4.70;99.90
26947;DHT22;14501;52.282;10.560;2023-01-16T01:57:11;4.70;99.90
26947;DHT22;14501;52.282;10.560;2023-01-16T01:59:42;4.80;99.90
26947;DHT22;14501;52.282;10.560;2023-01-16T02:02:13;4.90;99.90
26947;DHT22;14501;52.282;10.560;2023-01-16T02:04:43;4.90;99.90
26947;DHT22;14501;52.282;10.560;2023-01-16T02:07:12;5.00;99.90
26947;DHT22;14501;52.282;10.560;2023-01-16T02:09:39;5.00;99.90
26947;DHT22;14501;52.282;10.560;2023-01-16T02:12:13;5.10;99.90
26947;DHT22;14501;52.282;10.560;2023-01-16T02:14:42;5.10;99.90
26947;DHT22;14501;52.282;10.560;2023-01-16T02:17:12;5.20;99.90
26947;DHT22;14501;52.282;10.560;2023-01-16T02:26:15;5.30;99.90
26947;DHT22;14501;52.282;10.560;2023-01-16T02:40:08;5.20;99.90
26947;DHT22;14501;52.282;10.560;2023-01-16T02:42:43;5.20;99.90
26947;DHT22;14501;52.282;10.560;2023-01-16T02:45:25;5.30;99.90
26947;DHT22;14501;52.282;10.560;2023-01-16T02:53:02;5.30;99.90
26947;DHT22;14501;52.282;10.560;2023-01-16T02:55:42;5.30;99.90
26947;DHT22;14501;52.282;10.560;2023-01-16T02:58:09;5.30;99.90
26947;DHT22;14501;52.282;10.560;2023-01-16T03:00:37;5.30;99.90
26947;DHT22;14501;52.282;10.560;2023-01-16T03:03:03;5.20;99.90
26947;DHT22;14501;52.282;10.560;2023-01-16T03:05:37;5.20;99.90
26947;DHT22;14501;52.282;10.560;2023-01-16T03:08:10;5.10;99.90
26947;DHT22;14501;52.282;10.560;2023-01-16T03:19:37;4.80;99.90
26947;DHT22;14501;52.282;10.560;2023-01-16T03:22:17;4.80;99.90
26947;DHT22;14501;52.282;10.560;2023-01-16T03:27:54;4.70;99.90
26947;DHT22;14501;52.282;10.560;2023-01-16T03:33:08;4.60;99.90
26947;DHT22;14501;52.282;10.560;2023-01-16T03:38:05;4.50;99.90
26947;DHT22;14501;52.282;10.560;2023-01-16T03:40:37;4.40;99.90
26947;DHT22;14501;52.282;10.560;2023-01-16T03:45:45;4.40;99.90
26947;DHT22;14501;52.282;10.560;2023-01-16T03:48:29;4.30;99.90
26947;DHT22;14501;52.282;10.560;2023-01-16T03:51:01;4.40;99.90
26947;DHT22;14501;52.282;10.560;2023-01-16T03:53:31;4.40;99.90
26947;DHT22;14501;52.282;10.560;2023-01-16T03:56:23;4.40;99.90
26947;DHT22;14501;52.282;10.560;2023-01-16T03:58:48;4.40;99.90
26947;DHT22;14501;52.282;10.560;2023-01-16T04:01:49;4.50;99.90
26947;DHT22;14501;52.282;10.560;2023-01-16T04:06:59;4.50;99.90
26947;DHT22;14501;52.282;10.560;2023-01-16T04:09:33;4.50;99.90
26947;DHT22;14501;52.282;10.560;2023-01-16T04:11:59;4.50;99.90
26947;DHT22;14501;52.282;10.560;2023-01-16T04:14:25;4.50;99.90
26947;DHT22;14501;52.282;10.560;2023-01-16T04:16:52;4.50;99.90
26947;DHT22;14501;52.282;10.560;2023-01-16T04:19:19;4.40;99.90
26947;DHT22;14501;52.282;10.560;2023-01-16T04:21:46;4.40;99.90
26947;DHT22;14501;52.282;10.560;2023-01-16T04:24:14;4.30;99.90
26947;DHT22;14501;52.282;10.560;2023-01-16T04:26:40;4.30;99.90
26947;DHT22;14501;52.282;10.560;2023-01-16T04:29:05;4.20;99.90
26947;DHT22;14501;52.282;10.560;2023-01-16T04:31:31;4.20;99.90
26947;DHT22;14501;52.282;10.560;2023-01-16T04:33:56;4.40;99.90
26947;DHT22;14501;52.282;10.560;2023-01-16T04:36:22;4.20;99.90
26947;DHT22;14501;52.282;10.560;2023-01-16T04:38:48;4.10;99.90
26947;DHT22;14501;52.282;10.560;2023-01-16T04:41:13;4.00;99.90
26947;DHT22;14501;52.282;10.560;2023-01-16T04:43:59;5.10;99.90
26947;DHT22;14501;52.282;10.560;2023-01-16T04:46:25;4.00;99.90
26947;DHT22;14501;52.282;10.560;2023-01-16T04:48:50;4.00;99.90
26947;DHT22;14501;52.282;10.560;2023-01-16T04:51:16;3.90;99.90
26947;DHT22;14501;52.282;10.560;2023-01-16T04:53:41;3.90;99.90
26947;DHT22;14501;52.282;10.560;2023-01-16T04:56:07;3.80;99.90
26947;DHT22;14501;52.282;10.560;2023-01-16T04:58:33;3.80;99.90
26947;DHT22;14501;52.282;10.560;2023-01-16T05:00:58;3.70;99.90
26947;DHT22;14501;52.282;10.560;2023-01-16T05:03:24;3.70;99.90
26947;DHT22;14501;52.282;10.560;2023-01-16T05:05:49;3.70;99.90
26947;DHT22;14501;52.282;10.560;2023-01-16T05:08:15;3.70;99.90
26947;DHT22;14501;52.282;10.560;2023-01-16T05:10:43;3.70;99.90
26947;DHT22;14501;52.282;10.560;2023-01-16T05:13:09;3.70;99.90
26947;DHT22;14501;52.282;10.560;2023-01-16T05:15:35;3.80;99.90
26947;DHT22;14501;52.282;10.560;2023-01-16T05:18:00;3.70;99.90
26947;DHT22;14501;52.282;10.560;2023-01-16T05:20:26;3.70;99.90
26947;DHT22;14501;52.282;10.560;2023-01-16T05:22:52;3.60;99.90
26947;DHT22;14501;52.282;10.560;2023-01-16T05:25:17;3.60;99.90
26947;DHT22;14501;52.282;10.560;2023-01-16T05:27:51;3.60;99.90
26947;DHT22;14501;52.282;10.560;2023-01-16T05:30:17;3.60;99.90
26947;DHT22;14501;52.282;10.560;2023-01-16T05:32:43;3.60;99.90
26947;DHT22;14501;52.282;10.560;2023-01-16T05:35:09;3.70;99.90
26947;DHT22;14501;52.282;10.560;2023-01-16T05:37:35;3.60;99.90
26947;DHT22;14501;52.282;10.560;2023-01-16T05:40:01;3.60;99.90
26947;DHT22;14501;52.282;10.560;2023-01-16T05:42:27;3.50;99.90
26947;DHT22;14501;52.282;10.560;2023-01-16T05:47:19;3.50;99.90
26947;DHT22;14501;52.282;10.560;2023-01-16T05:49:45;3.50;99.90
26947;DHT22;14501;52.282;10.560;2023-01-16T05:52:11;3.50;99.90
26947;DHT22;14501;52.282;10.560;2023-01-16T05:54:37;3.50;99.90
26947;DHT22;14501;52.282;10.560;2023-01-16T05:57:02;3.40;99.90
26947;DHT22;14501;52.282;10.560;2023-01-16T05:59:28;3.40;99.90
26947;DHT22;14501;52.282;10.560;2023-01-16T06:01:54;3.30;99.90
26947;DHT22;14501;52.282;10.560;2023-01-16T06:04:19;3.40;99.90
26947;DHT22;14501;52.282;10.560;2023-01-16T06:06:45;3.40;99.90
26947;DHT22;14501;52.282;10.560;2023-01-16T06:09:11;3.40;99.90
26947;DHT22;14501;52.282;10.560;2023-01-16T06:11:37;3.50;99.90
26947;DHT22;14501;52.282;10.560;2023-01-16T06:14:03;5.00;99.90
26947;DHT22;14501;52.282;10.560;2023-01-16T06:16:31;3.70;99.90
26947;DHT22;14501;52.282;10.560;2023-01-16T06:18:57;3.70;99.90
26947;DHT22;14501;52.282;10.560;2023-01-16T06:21:22;3.70;99.90
26947;DHT22;14501;52.282;10.560;2023-01-16T06:23:48;3.80;99.90
26947;DHT22;14501;52.282;10.560;2023-01-16T06:26:13;4.00;99.90
26947;DHT22;14501;52.282;10.560;2023-01-16T06:28:39;3.90;99.90
26947;DHT22;14501;52.282;10.560;2023-01-16T06:31:06;4.00;99.90
26947;DHT22;14501;52.282;10.560;2023-01-16T06:33:32;4.10;99.90
26947;DHT22;14501;52.282;10.560;2023-01-16T06:35:58;4.00;99.90
26947;DHT22;14501;52.282;10.560;2023-01-16T06:38:24;3.90;99.90
26947;DHT22;14501;52.282;10.560;2023-01-16T06:40:52;4.30;99.90
26947;DHT22;14501;52.282;10.560;2023-01-16T06:43:23;4.30;99.90
26947;DHT22;14501;52.282;10.560;2023-01-16T06:45:49;4.40;99.90
26947;DHT22;14501;52.282;10.560;2023-01-16T06:48:15;4.40;99.90
26947;DHT22;14501;52.282;10.560;2023-01-16T06:50:41;4.30;99.90
26947;DHT22;14501;52.282;10.560;2023-01-16T06:53:07;5.40;99.90
26947;DHT22;14501;52.282;10.560;2023-01-16T06:55:33;4.00;99.90
26947;DHT22;14501;52.282;10.560;2023-01-16T06:57:59;3.90;99.90
26947;DHT22;14501;52.282;10.560;2023-01-16T07:00:24;3.90;99.90
26947;DHT22;14501;52.282;10.560;2023-01-16T07:02:52;3.80;99.90
26947;DHT22;14501;52.282;10.560;2023-01-16T07:05:20;3.60;99.90
26947;DHT22;14501;52.282;10.560;2023-01-16T07:07:46;3.50;99.90
26947;DHT22;14501;52.282;10.560;2023-01-16T07:10:14;3.60;99.90
26947;DHT22;14501;52.282;10.560;2023-01-16T07:12:40;3.40;99.90
26947;DHT22;14501;52.282;10.560;2023-01-16T07:15:06;3.40;99.90
26947;DHT22;14501;52.282;10.560;2023-01-16T07:17:50;3.40;99.90
26947;DHT22;14501;52.282;10.560;2023-01-16T07:20:35;3.40;99.90
26947;DHT22;14501;52.282;10.560;2023-01-16T07:23:27;3.40;99.90
26947;DHT22;14501;52.282;10.560;2023-01-16T07:25:56;3.50;99.90
26947;DHT22;14501;52.282;10.560;2023-01-16T07:28:23;4.60;99.90
26947;DHT22;14501;52.282;10.560;2023-01-16T07:30:49;3.50;99.90
26947;DHT22;14501;52.282;10.560;2023-01-16T07:33:15;3.50;99.90
26947;DHT22;14501;52.282;10.560;2023-01-16T07:35:41;3.40;99.90
26947;DHT22;14501;52.282;10.560;2023-01-16T07:38:07;3.40;99.90
26947;DHT22;14501;52.282;10.560;2023-01-16T07:40:32;3.50;99.90
26947;DHT22;14501;52.282;10.560;2023-01-16T07:42:58;3.40;99.90
26947;DHT22;14501;52.282;10.560;2023-01-16T07:45:23;3.40;99.90
26947;DHT22;14501;52.282;10.560;2023-01-16T07:50:16;3.50;99.90
26947;DHT22;14501;52.282;10.560;2023-01-16T07:52:43;3.50;99.90
26947;DHT22;14501;52.282;10.560;2023-01-16T07:55:10;3.50;99.90
26947;DHT22;14501;52.282;10.560;2023-01-16T07:57:37;4.90;99.90
26947;DHT22;14501;52.282;10.560;2023-01-16T08:00:04;3.40;99.90
26947;DHT22;14501;52.282;10.560;2023-01-16T08:02:30;3.50;99.90
26947;DHT22;14501;52.282;10.560;2023-01-16T08:04:55;3.50;99.90
26947;DHT22;14501;52.282;10.560;2023-01-16T08:09:47;3.40;99.90
26947;DHT22;14501;52.282;10.560;2023-01-16T08:12:12;3.50;99.90
26947;DHT22;14501;52.282;10.560;2023-01-16T08:14:38;3.50;99.90
26947;DHT22;14501;52.282;10.560;2023-01-16T08:17:05;3.80;99.90
26947;DHT22;14501;52.282;10.560;2023-01-16T08:19:30;3.80;99.90
26947;DHT22;14501;52.282;10.560;2023-01-16T08:21:56;4.20;99.90
26947;DHT22;14501;52.282;10.560;2023-01-16T08:24:22;6.80;99.90
26947;DHT22;14501;52.282;10.560;2023-01-16T08:26:49;7.10;99.90
26947;DHT22;14501;52.282;10.560;2023-01-16T08:29:15;8.80;99.90
26947;DHT22;14501;52.282;10.560;2023-01-16T08:31:40;7.20;99.90
26947;DHT22;14501;52.282;10.560;2023-01-16T08:34:06;7.60;99.90
26947;DHT22;14501;52.282;10.560;2023-01-16T08:36:32;7.50;99.90
26947;DHT22;14501;52.282;10.560;2023-01-16T08:38:57;7.50;99.90
26947;DHT22;14501;52.282;10.560;2023-01-16T08:41:23;9.90;99.90
26947;DHT22;14501;52.282;10.560;2023-01-16T08:44:11;7.40;99.90
26947;DHT22;14501;52.282;10.560;2023-01-16T08:47:09;7.40;99.90
26947;DHT22;14501;52.282;10.560;2023-01-16T08:49:53;7.60;99.90
26947;DHT22;14501;52.282;10.560;2023-01-16T08:52:38;7.70;99.90
26947;DHT22;14501;52.282;10.560;2023-01-16T08:55:05;8.20;99.90
26947;DHT22;14501;52.282;10.560;2023-01-16T08:57:31;8.20;99.90
26947;DHT22;14501;52.282;10.560;2023-01-16T08:59:57;8.30;99.90
26947;DHT22;14501;52.282;10.560;2023-01-16T09:02:24;8.30;99.90
26947;DHT22;14501;52.282;10.560;2023-01-16T09:04:50;8.80;99.90
26947;DHT22;14501;52.282;10.560;2023-01-16T09:07:16;9.00;99.90
26947;DHT22;14501;52.282;10.560;2023-01-16T09:09:43;9.10;99.90
26947;DHT22;14501;52.282;10.560;2023-01-16T09:12:10;9.80;99.90
26947;DHT22;14501;52.282;10.560;2023-01-16T09:14:54;10.60;99.90
26947;DHT22;14501;52.282;10.560;2023-01-16T09:19:47;10.60;99.90
26947;DHT22;14501;52.282;10.560;2023-01-16T09:22:13;10.20;99.90
26947;DHT22;14501;52.282;10.560;2023-01-16T09:24:38;9.80;99.90
26947;DHT22;14501;52.282;10.560;2023-01-16T09:27:04;10.00;99.90
26947;DHT22;14501;52.282;10.560;2023-01-16T09:29:30;12.10;99.90
26947;DHT22;14501;52.282;10.560;2023-01-16T09:31:57;10.00;99.90
26947;DHT22;14501;52.282;10.560;2023-01-16T09:34:22;9.40;99.90
26947;DHT22;14501;52.282;10.560;2023-01-16T09:36:48;8.60;99.90
26947;DHT22;14501;52.282;10.560;2023-01-16T09:39:14;10.00;99.90
26947;DHT22;14501;52.282;10.560;2023-01-16T09:44:54;7.70;99.90
26947;DHT22;14501;52.282;10.560;2023-01-16T09:47:23;7.10;99.90
26947;DHT22;14501;52.282;10.560;2023-01-16T09:50:00;6.80;99.90
26947;DHT22;14501;52.282;10.560;2023-01-16T09:52:29;6.70;99.90
26947;DHT22;14501;52.282;10.560;2023-01-16T09:55:22;6.20;99.90
26947;DHT22;14501;52.282;10.560;2023-01-16T09:58:13;6.00;99.90
26947;DHT22;14501;52.282;10.560;2023-01-16T10:01:00;5.90;99.90
26947;DHT22;14501;52.282;10.560;2023-01-16T10:03:26;5.80;99.90
26947;DHT22;14501;52.282;10.560;2023-01-16T10:09:04;5.70;99.90
26947;DHT22;14501;52.282;10.560;2023-01-16T10:12:14;5.70;99.90
26947;DHT22;14501;52.282;10.560;2023-01-16T10:20:29;5.90;99.90
26947;DHT22;14501;52.282;10.560;2023-01-16T10:26:06;6.30;99.90
26947;DHT22;14501;52.282;10.560;2023-01-16T10:37:03;6.60;99.90
26947;DHT22;14501;52.282;10.560;2023-01-16T10:39:36;6.60;99.90
26947;DHT22;14501;52.282;10.560;2023-01-16T10:42:13;6.70;99.90
26947;DHT22;14501;52.282;10.560;2023-01-16T10:47:51;6.70;99.90
26947;DHT22;14501;52.282;10.560;2023-01-16T10:50:36;6.70;99.90
26947;DHT22;14501;52.282;10.560;2023-01-16T10:53:05;6.60;99.90
26947;DHT22;14501;52.282;10.560;2023-01-16T10:55:33;6.70;99.90
26947;DHT22;14501;52.282;10.560;2023-01-16T10:58:47;6.60;99.90
26947;DHT22;14501;52.282;10.560;2023-01-16T11:01:05;6.70;99.90
26947;DHT22;14501;52.282;10.560;2023-01-16T11:06:20;6.70;99.90
26947;DHT22;14501;52.282;10.560;2023-01-16T11:09:05;6.70;99.90
26947;DHT22;14501;52.282;10.560;2023-01-16T11:11:35;6.60;99.90
26947;DHT22;14501;52.282;10.560;2023-01-16T11:14:30;6.70;99.90
26947;DHT22;14501;52.282;10.560;2023-01-16T11:17:28;6.60;99.90
26947;DHT22;14501;52.282;10.560;2023-01-16T11:20:18;6.70;99.90
26947;DHT22;14501;52.282;10.560;2023-01-16T11:22:48;6.60;99.90
26947;DHT22;14501;52.282;10.560;2023-01-16T11:25:16;6.40;99.90
26947;DHT22;14501;52.282;10.560;2023-01-16T11:27:44;6.40;99.90
26947;DHT22;14501;52.282;10.560;2023-01-16T11:30:27;6.40;99.90
26947;DHT22;14501;52.282;10.560;2023-01-16T11:32:55;6.30;99.90
26947;DHT22;14501;52.282;10.560;2023-01-16T11:35:30;6.20;99.90
26947;DHT22;14501;52.282;10.560;2023-01-16T11:37:57;6.30;99.90
26947;DHT22;14501;52.282;10.560;2023-01-16T11:40:33;6.30;99.90
26947;DHT22;14501;52.282;10.560;2023-01-16T11:43:08;6.30;99.90
26947;DHT22;14501;52.282;10.560;2023-01-16T11:45:56;6.40;99.90
26947;DHT22;14501;52.282;10.560;2023-01-16T11:48:52;6.40;99.90
26947;DHT22;14501;52.282;10.560;2023-01-16T11:51:20;6.50;99.90
26947;DHT22;14501;52.282;10.560;2023-01-16T11:53:50;6.50;99.90
26947;DHT22;14501;52.282;10.560;2023-01-16T12:04:33;6.60;99.90
26947;DHT22;14501;52.282;10.560;2023-01-16T12:07:13;6.40;99.90
26947;DHT22;14501;52.282;10.560;2023-01-16T12:13:04;6.40;99.90
26947;DHT22;14501;52.282;10.560;2023-01-16T12:18:46;6.40;99.90
26947;DHT22;14501;52.282;10.560;2023-01-16T12:24:14;6.40;99.90
26947;DHT22;14501;52.282;10.560;2023-01-16T12:27:05;6.40;99.90
26947;DHT22;14501;52.282;10.560;2023-01-16T12:35:12;6.60;99.90
26947;DHT22;14501;52.282;10.560;2023-01-16T12:40:52;6.60;99.90
26947;DHT22;14501;52.282;10.560;2023-01-16T12:46:23;7.50;99.90
26947;DHT22;14501;52.282;10.560;2023-01-16T12:51:57;6.70;99.90
26947;DHT22;14501;52.282;10.560;2023-01-16T13:00:23;6.60;99.90
26947;DHT22;14501;52.282;10.560;2023-01-16T13:03:09;6.60;99.90
26947;DHT22;14501;52.282;10.560;2023-01-16T13:05:38;6.60;99.90
26947;DHT22;14501;52.282;10.560;2023-01-16T13:08:16;6.60;99.90
26947;DHT22;14501;52.282;10.560;2023-01-16T13:10:48;6.50;99.90
26947;DHT22;14501;52.282;10.560;2023-01-16T13:13:37;6.50;99.90
26947;DHT22;14501;52.282;10.560;2023-01-16T13:16:15;6.60;99.90
26947;DHT22;14501;52.282;10.560;2023-01-16T13:18:50;6.60;99.90
26947;DHT22;14501;52.282;10.560;2023-01-16T13:21:20;6.90;99.90
26947;DHT22;14501;52.282;10.560;2023-01-16T13:26:31;7.70;99.90
26947;DHT22;14501;52.282;10.560;2023-01-16T13:31:33;6.60;99.90
26947;DHT22;14501;52.282;10.560;2023-01-16T13:34:16;6.70;99.90
26947;DHT22;14501;52.282;10.560;2023-01-16T13:41:56;6.70;99.90
26947;DHT22;14501;52.282;10.560;2023-01-16T13:44:26;6.70;99.90
26947;DHT22;14501;52.282;10.560;2023-01-16T13:47:17;6.70;99.90
26947;DHT22;14501;52.282;10.560;2023-01-16T13:49:55;6.80;99.90
26947;DHT22;14501;52.282;10.560;2023-01-16T13:52:26;6.80;99.90
26947;DHT22;14501;52.282;10.560;2023-01-16T13:54:56;7.00;99.90
26947;DHT22;14501;52.282;10.560;2023-01-16T13:57:23;7.00;99.90
26947;DHT22;14501;52.282;10.560;2023-01-16T13:59:56;7.10;99.90
26947;DHT22;14501;52.282;10.560;2023-01-16T14:07:47;7.20;99.90
26947;DHT22;14501;52.282;10.560;2023-01-16T14:10:40;7.20;99.90
26947;DHT22;14501;52.282;10.560;2023-01-16T14:16:00;7.20;99.90
26947;DHT22;14501;52.282;10.560;2023-01-16T14:24:05;7.10;99.90
26947;DHT22;14501;52.282;10.560;2023-01-16T14:29:28;7.40;99.90
26947;DHT22;14501;52.282;10.560;2023-01-16T14:32:16;6.90;99.90
26947;DHT22;14501;52.282;10.560;2023-01-16T14:35:02;6.80;99.90
26947;DHT22;14501;52.282;10.560;2023-01-16T14:37:38;6.70;99.90
26947;DHT22;14501;52.282;10.560;2023-01-16T14:42:52;8.50;99.90
26947;DHT22;14501;52.282;10.560;2023-01-16T14:45:38;6.40;99.90
26947;DHT22;14501;52.282;10.560;2023-01-16T14:54:04;6.30;99.90
26947;DHT22;14501;52.282;10.560;2023-01-16T14:57:08;6.30;99.90
26947;DHT22;14501;52.282;10.560;2023-01-16T14:59:39;6.20;99.90
26947;DHT22;14501;52.282;10.560;2023-01-16T15:02:11;6.20;99.90
26947;DHT22;14501;52.282;10.560;2023-01-16T15:04:56;6.00;99.90
26947;DHT22;14501;52.282;10.560;2023-01-16T15:07:56;6.10;99.90
26947;DHT22;14501;52.282;10.560;2023-01-16T15:10:36;6.20;99.90
26947;DHT22;14501;52.282;10.560;2023-01-16T15:13:30;6.00;99.90
26947;DHT22;14501;52.282;10.560;2023-01-16T15:16:22;5.90;99.90
26947;DHT22;14501;52.282;10.560;2023-01-16T15:19:20;5.90;99.90
26947;DHT22;14501;52.282;10.560;2023-01-16T15:22:38;5.80;99.90
26947;DHT22;14501;52.282;10.560;2023-01-16T15:25:10;5.80;99.90
26947;DHT22;14501;52.282;10.560;2023-01-16T15:27:37;5.70;99.90
26947;DHT22;14501;52.282;10.560;2023-01-16T15:30:05;5.90;99.90
26947;DHT22;14501;52.282;10.560;2023-01-16T15:32:55;6.00;99.90
26947;DHT22;14501;52.282;10.560;2023-01-16T15:35:41;6.00;99.90
26947;DHT22;14501;52.282;10.560;2023-01-16T15:38:08;5.90;99.90
26947;DHT22;14501;52.282;10.560;2023-01-16T15:40:35;5.80;99.90
26947;DHT22;14501;52.282;10.560;2023-01-16T15:43:02;5.70;99.90
26947;DHT22;14501;52.282;10.560;2023-01-16T15:48:51;5.60;99.90
26947;DHT22;14501;52.282;10.560;2023-01-16T15:51:20;5.60;99.90
26947;DHT22;14501;52.282;10.560;2023-01-16T15:53:48;5.50;99.90
26947;DHT22;14501;52.282;10.560;2023-01-16T15:56:37;5.40;99.90
26947;DHT22;14501;52.282;10.560;2023-01-16T15:59:29;5.40;99.90
26947;DHT22;14501;52.282;10.560;2023-01-16T16:04:44;5.30;99.90
26947;DHT22;14501;52.282;10.560;2023-01-16T16:07:11;5.30;99.90
26947;DHT22;14501;52.282;10.560;2023-01-16T16:09:38;5.30;99.90
26947;DHT22;14501;52.282;10.560;2023-01-16T16:12:05;5.30;99.90
26947;DHT22;14501;52.282;10.560;2023-01-16T16:14:35;5.30;99.90
26947;DHT22;14501;52.282;10.560;2023-01-16T16:20:34;5.40;99.90
26947;DHT22;14501;52.282;10.560;2023-01-16T16:25:58;5.40;99.90
26947;DHT22;14501;52.282;10.560;2023-01-16T16:28:26;5.40;99.90
26947;DHT22;14501;52.282;10.560;2023-01-16T16:33:40;5.40;99.90
26947;DHT22;14501;52.282;10.560;2023-01-16T16:36:06;5.40;99.90
26947;DHT22;14501;52.282;10.560;2023-01-16T16:38:41;5.40;99.90
26947;DHT22;14501;52.282;10.560;2023-01-16T16:43:57;5.40;99.90
26947;DHT22;14501;52.282;10.560;2023-01-16T16:51:34;5.40;99.90
26947;DHT22;14501;52.282;10.560;2023-01-16T16:56:31;5.40;99.90
26947;DHT22;14501;52.282;10.560;2023-01-16T16:58:58;5.40;99.90
26947;DHT22;14501;52.282;10.560;2023-01-16T17:01:25;5.30;99.90
26947;DHT22;14501;52.282;10.560;2023-01-16T17:03:55;5.30;99.90
26947;DHT22;14501;52.282;10.560;2023-01-16T17:06:25;5.20;99.90
26947;DHT22;14501;52.282;10.560;2023-01-16T17:08:52;5.20;99.90
26947;DHT22;14501;52.282;10.560;2023-01-16T17:11:18;5.60;99.90
26947;DHT22;14501;52.282;10.560;2023-01-16T17:13:44;5.60;99.90
26947;DHT22;14501;52.282;10.560;2023-01-16T17:16:18;5.10;99.90
26947;DHT22;14501;52.282;10.560;2023-01-16T17:18:45;5.10;99.90
26947;DHT22;14501;52.282;10.560;2023-01-16T17:21:15;5.10;99.90
26947;DHT22;14501;52.282;10.560;2023-01-16T17:23:41;5.10;99.90
26947;DHT22;14501;52.282;10.560;2023-01-16T17:26:07;5.10;99.90
26947;DHT22;14501;52.282;10.560;2023-01-16T17:28:35;5.10;99.90
26947;DHT22;14501;52.282;10.560;2023-01-16T17:31:01;5.10;99.90
26947;DHT22;14501;52.282;10.560;2023-01-16T17:33:26;5.10;99.90
26947;DHT22;14501;52.282;10.560;2023-01-16T17:35:55;5.10;99.90
26947;DHT22;14501;52.282;10.560;2023-01-16T17:38:40;5.10;99.90
26947;DHT22;14501;52.282;10.560;2023-01-16T17:41:20;5.10;99.90
26947;DHT22;14501;52.282;10.560;2023-01-16T17:43:55;5.10;99.90
26947;DHT22;14501;52.282;10.560;2023-01-16T17:46:39;5.10;99.90
26947;DHT22;14501;52.282;10.560;2023-01-16T17:49:05;5.10;99.90
26947;DHT22;14501;52.282;10.560;2023-01-16T17:51:30;5.10;99.90
26947;DHT22;14501;52.282;10.560;2023-01-16T17:53:57;4.90;99.90
26947;DHT22;14501;52.282;10.560;2023-01-16T17:56:23;5.10;99.90
26947;DHT22;14501;52.282;10.560;2023-01-16T17:58:50;5.10;99.90
26947;DHT22;14501;52.282;10.560;2023-01-16T18:01:25;5.00;99.90
26947;DHT22;14501;52.282;10.560;2023-01-16T18:03:53;5.00;99.90
26947;DHT22;14501;52.282;10.560;2023-01-16T18:06:25;5.00;99.90
26947;DHT22;14501;52.282;10.560;2023-01-16T18:08:53;5.00;99.90
26947;DHT22;14501;52.282;10.560;2023-01-16T18:11:19;5.00;99.90
26947;DHT22;14501;52.282;10.560;2023-01-16T18:14:04;4.90;99.90
26947;DHT22;14501;52.282;10.560;2023-01-16T18:16:48;4.80;99.90
26947;DHT22;14501;52.282;10.560;2023-01-16T18:19:33;4.80;99.90
26947;DHT22;14501;52.282;10.560;2023-01-16T18:24:26;4.80;99.90
26947;DHT22;14501;52.282;10.560;2023-01-16T18:26:51;4.80;99.90
26947;DHT22;14501;52.282;10.560;2023-01-16T18:29:17;4.80;99.90
26947;DHT22;14501;52.282;10.560;2023-01-16T18:31:42;4.80;99.90
26947;DHT22;14501;52.282;10.560;2023-01-16T18:34:28;4.80;99.90
26947;DHT22;14501;52.282;10.560;2023-01-16T18:36:54;4.70;99.90
26947;DHT22;14501;52.282;10.560;2023-01-16T18:39:19;4.70;99.90
26947;DHT22;14501;52.282;10.560;2023-01-16T18:42:03;4.40;99.90
26947;DHT22;14501;52.282;10.560;2023-01-16T18:44:47;4.70;99.90
26947;DHT22;14501;52.282;10.560;2023-01-16T18:47:31;4.70;99.90
26947;DHT22;14501;52.282;10.560;2023-01-16T18:50:16;4.70;99.90
26947;DHT22;14501;52.282;10.560;2023-01-16T18:53:00;4.70;99.90
26947;DHT22;14501;52.282;10.560;2023-01-16T18:55:44;4.70;99.90
26947;DHT22;14501;52.282;10.560;2023-01-16T18:58:28;4.70;99.90
26947;DHT22;14501;52.282;10.560;2023-01-16T19:01:13;4.70;99.90
26947;DHT22;14501;52.282;10.560;2023-01-16T19:03:58;4.80;99.90
26947;DHT22;14501;52.282;10.560;2023-01-16T19:06:23;4.80;99.90